This is the latest recevied weather packets stored in our database for station/object N7CEE. If no packets are shown the sender has not sent any weather packets the latest 10 day(s).
| Time | Temp. | Humidity | Pressure | Rain* | Wind** | Luminosity | Snow |
|---|---|---|---|---|---|---|---|
| 1777822543 | 14.44° C | 44% | 1026.1 hPa | 0 mm | - | 102 W/m² | - |
| 1777822240 | 14.44° C | 43% | 1026.2 hPa | 0 mm | - | 107 W/m² | - |
| 1777821937 | 13.89° C | 43% | 1026.2 hPa | 0 mm | - | 202 W/m² | - |
| 1777821635 | 13.89° C | 43% | 1026.3 hPa | 0 mm | - | 128 W/m² | - |
| 1777821333 | 12.78° C | 45% | 1026.3 hPa | 0 mm | - | 85 W/m² | - |
| 1777821029 | 12.78° C | 45% | 1026.2 hPa | 0 mm | - | 46 W/m² | - |
| 1777820726 | 12.22° C | 48% | 1026.1 hPa | 0 mm | - | 43 W/m² | - |
| 1777820422 | 11.67° C | 49% | 1026.5 hPa | 0 mm | - | 44 W/m² | - |
| 1777820120 | 10.56° C | 54% | 1026.3 hPa | 0 mm | - | 38 W/m² | - |
| 1777819816 | 10° C | 55% | 1026.1 hPa | 0 mm | - | 36 W/m² | - |
| 1777819514 | 8.89° C | 57% | 1026.1 hPa | 0 mm | - | 36 W/m² | - |
| 1777819212 | 8.33° C | 58% | 1026.1 hPa | 0 mm | - | 35 W/m² | - |
| 1777818909 | 7.78° C | 59% | 1026 hPa | 0 mm | - | 31 W/m² | - |
| 1777818604 | 7.78° C | 59% | 1026 hPa | 0 mm | - | 29 W/m² | - |
| 1777818302 | 7.78° C | 59% | 1026 hPa | 0 mm | - | 35 W/m² | - |
| 1777817998 | 7.78° C | 57% | 1026.1 hPa | 0 mm | - | 45 W/m² | - |
| 1777817696 | 7.22° C | 58% | 1026 hPa | 0 mm | - | 52 W/m² | - |
| 1777817393 | 7.22° C | 58% | 1026 hPa | 0 mm | - | 45 W/m² | - |
| 1777817089 | 7.22° C | 57% | 1026.1 hPa | 0 mm | - | 34 W/m² | - |
| 1777816785 | 6.67° C | 58% | 1025.8 hPa | 0 mm | - | 32 W/m² | - |
| 1777816483 | 6.67° C | 58% | 1026 hPa | 0 mm | - | 27 W/m² | - |
| 1777816180 | 6.67° C | 57% | 1026 hPa | 0 mm | - | 21 W/m² | - |
| 1777815878 | 6.67° C | 58% | 1026 hPa | 0 mm | - | 19 W/m² | - |
| 1777815575 | 6.67° C | 58% | 1025.8 hPa | 0 mm | - | 19 W/m² | - |
| 1777815273 | 6.11° C | 58% | 1025.8 hPa | 0 mm | - | 22 W/m² | - |
* Rain latest hour (hover to see other rain measurements)
** Current wind speed in m/s (hover to see current wind gust speed)